createdAt,value
2019-01-13T00:01:10.644Z,86.25
2019-01-13T00:03:41.280Z,85.47
2019-01-13T00:06:11.936Z,86.08
2019-01-13T00:08:42.534Z,86.11
2019-01-13T00:11:13.538Z,86.32
2019-01-13T00:13:47.596Z,86.26
2019-01-13T00:16:18.210Z,86.57
2019-01-13T00:18:48.738Z,86.09
2019-01-13T00:21:19.538Z,86.44
2019-01-13T00:23:50.105Z,86.58
2019-01-13T00:26:22.389Z,86.67
2019-01-13T00:28:53.058Z,86.23
2019-01-13T00:31:23.758Z,86.14
2019-01-13T00:33:54.473Z,86.24
2019-01-13T00:36:25.254Z,86.61
2019-01-13T00:38:55.537Z,86.02
2019-01-13T00:41:26.499Z,86.08
2019-01-13T00:43:56.857Z,86.22
2019-01-13T00:46:30.379Z,86.31
2019-01-13T00:49:00.582Z,86.12
2019-01-13T00:51:34.019Z,86.53
2019-01-13T00:54:09.060Z,86.67
2019-01-13T00:56:39.782Z,86.35
2019-01-13T00:59:10.000Z,86.59
2019-01-13T01:01:40.677Z,86.60
2019-01-13T01:04:11.381Z,86.44
2019-01-13T01:06:42.105Z,86.85
2019-01-13T01:09:12.761Z,86.57
2019-01-13T01:11:43.457Z,86.45
2019-01-13T01:14:14.094Z,86.57
2019-01-13T01:16:44.833Z,86.17
2019-01-13T01:19:15.360Z,86.40
2019-01-13T01:21:45.988Z,86.60
2019-01-13T01:24:16.524Z,86.53
2019-01-13T01:26:47.150Z,86.22
2019-01-13T01:29:17.455Z,85.90
2019-01-13T01:31:48.128Z,85.57
2019-01-13T01:34:18.769Z,85.40
2019-01-13T01:36:49.394Z,85.11
2019-01-13T01:39:20.134Z,84.76
2019-01-13T01:41:51.054Z,84.78
2019-01-13T01:44:21.470Z,84.47
2019-01-13T01:46:52.138Z,84.82
2019-01-13T01:49:22.736Z,84.29
2019-01-13T01:51:53.378Z,84.50
2019-01-13T01:54:24.030Z,83.75
2019-01-13T01:56:54.792Z,83.68
2019-01-13T01:59:25.077Z,83.19
2019-01-13T02:01:55.799Z,82.99
2019-01-13T02:04:26.416Z,83.77
2019-01-13T02:06:56.980Z,82.82
2019-01-13T02:09:27.601Z,83.19
2019-01-13T02:11:58.112Z,83.55
2019-01-13T02:14:28.661Z,82.74
2019-01-13T02:16:59.287Z,82.81
2019-01-13T02:19:29.898Z,82.59
2019-01-13T02:22:00.589Z,83.21
2019-01-13T02:24:31.166Z,83.28
2019-01-13T02:27:01.695Z,83.00
2019-01-13T02:29:32.444Z,83.74
2019-01-13T02:32:03.233Z,83.17
2019-01-13T02:34:33.907Z,83.78
2019-01-13T02:37:04.565Z,84.10
2019-01-13T02:39:35.277Z,83.43
2019-01-13T02:42:05.994Z,83.81
2019-01-13T02:44:36.641Z,83.44
2019-01-13T02:47:07.283Z,83.78
2019-01-13T02:49:37.897Z,83.83
2019-01-13T02:52:08.550Z,84.39
2019-01-13T02:54:39.278Z,84.86
2019-01-13T02:57:09.881Z,86.58
2019-01-13T02:59:40.527Z,87.45
2019-01-13T03:02:13.008Z,88.18
2019-01-13T03:04:43.327Z,88.19
2019-01-13T03:07:14.088Z,88.41
2019-01-13T03:09:44.586Z,88.71
2019-01-13T03:12:15.126Z,88.71
2019-01-13T03:14:47.443Z,88.21
2019-01-13T03:17:18.141Z,88.47
2019-01-13T03:19:48.761Z,88.09
2019-01-13T03:22:19.483Z,88.19
2019-01-13T03:24:50.037Z,88.02
2019-01-13T03:27:20.663Z,88.11
2019-01-13T03:29:51.188Z,88.56
2019-01-13T03:32:21.804Z,88.48
2019-01-13T03:34:52.311Z,88.49
2019-01-13T03:37:22.551Z,88.25
2019-01-13T03:39:53.127Z,88.57
2019-01-13T03:42:25.359Z,88.64
2019-01-13T03:44:55.995Z,88.57
2019-01-13T03:47:26.621Z,88.15
2019-01-13T03:49:56.873Z,88.55
2019-01-13T03:52:27.523Z,88.79
2019-01-13T03:54:58.145Z,88.37
2019-01-13T03:57:28.782Z,88.32
2019-01-13T03:59:59.535Z,88.23
2019-01-13T04:02:31.480Z,87.87
2019-01-13T04:05:02.219Z,88.24
2019-01-13T04:07:32.509Z,88.42
2019-01-13T04:10:03.139Z,88.21
2019-01-13T04:12:33.808Z,87.88
2019-01-13T04:15:07.019Z,88.35
2019-01-13T04:17:37.604Z,88.24
2019-01-13T04:20:08.468Z,87.73
2019-01-13T04:22:39.047Z,87.77
2019-01-13T04:25:09.686Z,87.56
2019-01-13T04:27:40.351Z,88.02
2019-01-13T04:30:13.002Z,87.79
2019-01-13T04:32:43.354Z,87.87
2019-01-13T04:35:13.846Z,88.19
2019-01-13T04:37:44.480Z,88.26
2019-01-13T04:40:14.736Z,88.30
2019-01-13T04:42:45.326Z,88.31
2019-01-13T04:45:15.886Z,88.43
2019-01-13T04:47:46.588Z,88.41
2019-01-13T04:50:17.115Z,89.08
2019-01-13T04:52:50.822Z,88.58
2019-01-13T04:55:21.373Z,88.65
2019-01-13T04:57:52.109Z,89.09
2019-01-13T05:00:23.559Z,88.66
2019-01-13T05:02:54.298Z,88.33
2019-01-13T05:05:25.029Z,88.30
2019-01-13T05:07:55.783Z,88.33
2019-01-13T05:10:26.469Z,88.45
2019-01-13T05:12:57.141Z,88.07
2019-01-13T05:15:28.313Z,88.18
2019-01-13T05:17:58.973Z,87.94
2019-01-13T05:20:29.427Z,88.29
2019-01-13T05:23:00.062Z,88.54
2019-01-13T05:25:30.675Z,88.16
2019-01-13T05:28:01.193Z,87.94
2019-01-13T05:30:32.208Z,88.13
2019-01-13T05:33:02.510Z,88.12
2019-01-13T05:35:33.222Z,88.20
2019-01-13T05:38:03.926Z,88.08
2019-01-13T05:40:34.578Z,87.97
2019-01-13T05:43:05.199Z,88.02
2019-01-13T05:45:35.854Z,88.50
2019-01-13T05:48:06.476Z,88.24
2019-01-13T05:50:37.145Z,88.25
2019-01-13T05:53:08.162Z,88.18
2019-01-13T05:55:38.776Z,88.77
2019-01-13T05:58:09.406Z,88.46
2019-01-13T06:00:41.176Z,88.34
2019-01-13T06:03:11.422Z,88.03
2019-01-13T06:05:41.916Z,88.51
2019-01-13T06:08:12.543Z,87.99
2019-01-13T06:10:43.075Z,88.08
2019-01-13T06:13:13.706Z,87.84
2019-01-13T06:15:45.767Z,87.87
2019-01-13T06:18:16.714Z,87.51
2019-01-13T06:20:47.409Z,87.50
2019-01-13T06:23:23.808Z,87.46
2019-01-13T06:26:00.453Z,87.45
2019-01-13T06:28:39.786Z,87.33
2019-01-13T06:31:11.339Z,87.40
2019-01-13T06:33:44.885Z,87.70
2019-01-13T06:36:15.855Z,87.39
2019-01-13T06:38:54.973Z,87.44
2019-01-13T06:41:22.318Z,87.64
2019-01-13T06:43:52.966Z,87.45
2019-01-13T06:46:28.649Z,87.38
2019-01-13T06:49:01.265Z,87.14
2019-01-13T06:51:34.617Z,86.99
2019-01-13T06:54:05.215Z,87.05
2019-01-13T06:56:35.846Z,87.11
2019-01-13T06:59:06.980Z,87.14
2019-01-13T07:01:37.620Z,86.86
2019-01-13T07:04:08.244Z,86.70
2019-01-13T07:06:38.895Z,86.73
2019-01-13T07:09:09.612Z,86.48
2019-01-13T07:11:42.944Z,86.40
2019-01-13T07:14:13.646Z,86.52
2019-01-13T07:16:44.306Z,86.62
2019-01-13T07:19:15.520Z,86.64
2019-01-13T07:24:43.296Z,86.21
2019-01-13T07:27:13.619Z,86.08
2019-01-13T07:29:44.285Z,86.32
2019-01-13T07:32:19.135Z,86.08
2019-01-13T07:34:50.929Z,86.26
2019-01-13T07:37:21.583Z,86.35
2019-01-13T07:39:52.233Z,86.50
2019-01-13T07:42:22.841Z,86.42
2019-01-13T07:44:53.693Z,86.70
2019-01-13T07:47:25.322Z,86.45
2019-01-13T07:49:55.959Z,86.08
2019-01-13T07:52:27.625Z,86.41
2019-01-13T07:54:58.639Z,86.05
2019-01-13T07:57:29.296Z,85.95
2019-01-13T08:00:00.440Z,86.26
2019-01-13T08:02:31.211Z,85.49
2019-01-13T08:05:06.141Z,85.68
2019-01-13T08:07:42.991Z,85.65
2019-01-13T08:10:15.180Z,85.37
2019-01-13T08:12:46.064Z,85.59
2019-01-13T08:15:19.702Z,85.18
2019-01-13T08:17:50.312Z,85.51
2019-01-13T08:20:25.863Z,85.20
2019-01-13T08:22:56.423Z,85.51
2019-01-13T08:25:26.796Z,85.28
2019-01-13T08:27:57.358Z,85.25
2019-01-13T08:30:28.116Z,85.29
2019-01-13T08:32:58.837Z,85.34
2019-01-13T08:35:29.488Z,85.21
2019-01-13T08:38:00.116Z,85.65
2019-01-13T08:40:30.752Z,85.32
2019-01-13T08:43:01.012Z,85.34
2019-01-13T08:45:31.658Z,85.17
2019-01-13T08:48:02.207Z,85.33
2019-01-13T08:50:32.966Z,85.14
2019-01-13T08:53:03.223Z,85.28
2019-01-13T08:55:36.429Z,85.10
2019-01-13T08:58:07.143Z,84.88
2019-01-13T09:00:37.968Z,84.98
2019-01-13T09:03:08.553Z,85.03
2019-01-13T09:05:39.196Z,85.45
2019-01-13T09:08:09.776Z,85.02
2019-01-13T09:10:40.353Z,85.15
2019-01-13T09:13:10.873Z,85.48
2019-01-13T09:15:41.510Z,86.14
2019-01-13T09:18:11.865Z,86.28
2019-01-13T09:20:42.164Z,86.54
2019-01-13T09:23:14.972Z,86.62
2019-01-13T09:25:45.813Z,87.01
2019-01-13T09:28:16.454Z,86.90
2019-01-13T09:30:47.250Z,87.08
2019-01-13T09:33:18.023Z,87.16
2019-01-13T09:35:48.744Z,87.44
2019-01-13T09:38:19.515Z,87.60
2019-01-13T09:40:50.188Z,87.79
2019-01-13T09:43:20.810Z,87.90
2019-01-13T09:45:51.051Z,87.60
2019-01-13T09:48:22.259Z,88.18
2019-01-13T09:50:54.920Z,87.96
2019-01-13T09:53:25.617Z,87.67
2019-01-13T09:55:56.020Z,87.76
2019-01-13T09:58:26.701Z,87.84
2019-01-13T10:00:57.283Z,87.80
2019-01-13T10:03:27.911Z,87.89
2019-01-13T10:05:59.973Z,88.01
2019-01-13T10:08:30.628Z,87.97
2019-01-13T10:11:04.919Z,88.14
2019-01-13T10:13:35.252Z,87.97
2019-01-13T10:16:05.988Z,88.13
2019-01-13T10:18:36.651Z,87.91
2019-01-13T10:21:10.197Z,87.91
2019-01-13T10:23:40.838Z,87.66
2019-01-13T10:26:11.477Z,87.70
2019-01-13T10:28:42.217Z,87.77
2019-01-13T10:31:12.535Z,87.80
2019-01-13T10:33:43.327Z,87.63
2019-01-13T10:36:14.002Z,87.35
2019-01-13T10:38:44.772Z,87.44
2019-01-13T10:41:15.396Z,87.49
2019-01-13T10:43:49.704Z,87.58
2019-01-13T10:46:20.462Z,87.36
2019-01-13T10:48:51.077Z,87.55
2019-01-13T10:51:21.726Z,87.84
2019-01-13T10:53:53.645Z,87.61
2019-01-13T10:56:24.308Z,87.65
2019-01-13T10:58:55.279Z,87.75
2019-01-13T11:01:26.011Z,87.31
2019-01-13T11:03:56.717Z,87.37
2019-01-13T11:06:27.451Z,87.74
2019-01-13T11:09:00.206Z,87.52
2019-01-13T11:11:30.842Z,87.60
2019-01-13T11:14:01.465Z,87.87
2019-01-13T11:16:32.210Z,87.58
2019-01-13T11:19:02.729Z,87.87
2019-01-13T11:21:33.502Z,87.89
2019-01-13T11:24:04.212Z,88.23
2019-01-13T11:26:34.776Z,87.88
2019-01-13T11:29:05.380Z,88.12
2019-01-13T11:31:36.178Z,87.96
2019-01-13T11:34:08.581Z,87.78
2019-01-13T11:36:39.327Z,87.96
2019-01-13T11:39:10.535Z,88.01
2019-01-13T11:41:41.308Z,88.37
2019-01-13T11:44:11.891Z,88.28
2019-01-13T11:46:42.574Z,88.53
2019-01-13T11:49:16.286Z,88.59
2019-01-13T11:51:46.910Z,88.86
2019-01-13T11:54:17.287Z,88.73
2019-01-13T11:56:47.995Z,88.92
2019-01-13T11:59:18.710Z,88.63
2019-01-13T12:01:53.879Z,88.72
2019-01-13T12:04:25.149Z,88.68
2019-01-13T12:06:55.927Z,88.77
2019-01-13T12:09:26.612Z,88.89
2019-01-13T12:11:57.407Z,88.88
2019-01-13T12:14:28.132Z,88.78
2019-01-13T12:16:59.712Z,89.00
2019-01-13T12:19:30.096Z,88.99
2019-01-13T12:22:02.195Z,89.05
2019-01-13T12:24:35.304Z,89.18
2019-01-13T12:27:05.994Z,89.39
2019-01-13T12:29:38.986Z,89.32
2019-01-13T12:32:11.249Z,89.53
2019-01-13T12:34:41.990Z,89.44
2019-01-13T12:37:14.290Z,89.73
2019-01-13T12:39:46.198Z,89.96
2019-01-13T12:42:23.369Z,89.86
2019-01-13T12:44:54.038Z,89.84
2019-01-13T12:47:26.614Z,89.88
2019-01-13T12:49:57.228Z,90.06
2019-01-13T12:52:29.604Z,90.02
2019-01-13T12:55:03.543Z,90.17
2019-01-13T12:57:34.836Z,89.96
2019-01-13T13:00:29.473Z,89.91
2019-01-13T13:03:00.390Z,89.92
2019-01-13T13:05:35.518Z,89.95
2019-01-13T13:08:08.514Z,89.92
2019-01-13T13:10:40.685Z,89.83
2019-01-13T13:13:14.543Z,90.08
2019-01-13T13:15:45.235Z,90.05
2019-01-13T13:18:15.972Z,90.06
2019-01-13T13:20:46.600Z,89.97
2019-01-13T13:23:18.751Z,89.85
2019-01-13T13:25:49.416Z,89.98
2019-01-13T13:28:20.119Z,89.91
2019-01-13T13:30:50.749Z,89.97
2019-01-13T13:33:21.293Z,90.20
2019-01-13T13:35:52.119Z,90.11
2019-01-13T13:38:22.750Z,89.98
2019-01-13T13:40:53.309Z,90.14
2019-01-13T13:43:27.189Z,90.31
2019-01-13T13:45:57.474Z,90.13
2019-01-13T13:48:31.180Z,90.09
2019-01-13T13:51:01.956Z,90.09
2019-01-13T13:53:32.712Z,90.10
2019-01-13T13:56:03.425Z,90.06
2019-01-13T13:58:33.906Z,90.00
2019-01-13T14:01:04.516Z,90.14
2019-01-13T14:03:36.739Z,89.84
2019-01-13T14:06:07.481Z,90.18
2019-01-13T14:08:38.270Z,89.83
2019-01-13T14:11:09.004Z,89.99
2019-01-13T14:13:39.838Z,89.92
2019-01-13T14:16:12.048Z,90.02
2019-01-13T14:18:42.543Z,89.82
2019-01-13T14:21:13.280Z,90.05
2019-01-13T14:23:44.176Z,90.03
2019-01-13T14:26:14.711Z,89.86
2019-01-13T14:28:47.123Z,89.90
2019-01-13T14:31:17.847Z,89.91
2019-01-13T14:33:53.086Z,89.68
2019-01-13T14:36:23.922Z,89.84
2019-01-13T14:38:56.606Z,89.68
2019-01-13T14:41:27.416Z,89.85
2019-01-13T14:43:58.107Z,89.76
2019-01-13T14:46:28.870Z,89.91
2019-01-13T14:48:59.659Z,89.80
2019-01-13T14:51:32.015Z,89.88
2019-01-13T14:54:02.720Z,89.78
2019-01-13T14:56:35.565Z,89.51
2019-01-13T14:59:06.390Z,89.78
2019-01-13T15:01:38.672Z,89.53
2019-01-13T15:04:13.079Z,89.70
2019-01-13T15:06:46.722Z,89.64
2019-01-13T15:09:19.076Z,89.56
2019-01-13T15:11:49.758Z,89.51
2019-01-13T15:14:20.593Z,89.66
2019-01-13T15:16:54.094Z,89.68
2019-01-13T15:19:26.656Z,89.68
2019-01-13T15:21:58.834Z,89.59
2019-01-13T15:24:29.683Z,89.77
2019-01-13T15:27:00.406Z,89.72
2019-01-13T15:29:30.781Z,89.59
2019-01-13T15:32:01.635Z,89.56
2019-01-13T15:34:35.403Z,89.48
2019-01-13T15:37:05.875Z,89.71
2019-01-13T15:39:36.606Z,89.50
2019-01-13T15:42:09.516Z,89.54
2019-01-13T15:44:40.252Z,89.45
2019-01-13T15:47:12.508Z,89.36
2019-01-13T15:49:43.265Z,89.57
2019-01-13T15:52:18.982Z,89.69
2019-01-13T15:54:49.839Z,89.49
2019-01-13T15:57:20.478Z,89.45
2019-01-13T15:59:51.345Z,89.48
2019-01-13T16:02:23.050Z,89.51
2019-01-13T16:04:53.815Z,89.38
2019-01-13T16:07:24.565Z,89.16
2019-01-13T16:09:57.308Z,89.22
2019-01-13T16:12:28.035Z,89.37
2019-01-13T16:14:59.136Z,89.10
2019-01-13T16:17:29.920Z,89.41
2019-01-13T16:20:00.680Z,89.18
2019-01-13T16:22:30.961Z,89.21
2019-01-13T16:25:01.367Z,89.18
2019-01-13T16:27:32.193Z,88.91
2019-01-13T16:30:02.980Z,88.69
2019-01-13T16:32:37.009Z,89.17
2019-01-13T16:35:11.384Z,88.65
2019-01-13T16:37:42.266Z,88.90
2019-01-13T16:40:15.165Z,88.83
2019-01-13T16:42:45.517Z,88.88
2019-01-13T16:45:17.272Z,88.97
2019-01-13T16:47:48.290Z,88.99
2019-01-13T16:50:20.932Z,88.90
2019-01-13T16:52:53.194Z,88.84
2019-01-13T16:55:26.643Z,88.86
2019-01-13T16:57:57.352Z,88.87
2019-01-13T17:00:29.451Z,88.92
2019-01-13T17:03:03.859Z,89.18
2019-01-13T17:05:35.071Z,89.05
2019-01-13T17:08:05.808Z,89.02
2019-01-13T17:10:36.728Z,88.97
2019-01-13T17:13:07.908Z,88.84
2019-01-13T17:15:39.434Z,89.40
2019-01-13T17:18:11.830Z,89.55
2019-01-13T17:20:42.703Z,89.65
2019-01-13T17:23:13.517Z,89.41
2019-01-13T17:25:43.858Z,89.75
2019-01-13T17:28:14.616Z,89.57
2019-01-13T17:30:45.352Z,89.43
2019-01-13T17:33:16.117Z,89.78
2019-01-13T17:35:47.267Z,89.39
2019-01-13T17:38:18.103Z,89.47
2019-01-13T17:40:51.529Z,89.57
2019-01-13T17:43:22.797Z,89.55
2019-01-13T17:45:53.519Z,89.47
2019-01-13T17:48:24.211Z,89.67
2019-01-13T17:50:54.991Z,89.94
2019-01-13T17:53:26.083Z,89.93
2019-01-13T17:55:57.063Z,89.95
2019-01-13T17:58:27.825Z,90.47
2019-01-13T18:00:59.595Z,89.96
2019-01-13T18:03:33.567Z,89.94
2019-01-13T18:06:04.875Z,89.39
2019-01-13T18:08:35.621Z,89.07
2019-01-13T18:11:06.001Z,89.11
2019-01-13T18:13:42.138Z,88.65
2019-01-13T18:16:12.947Z,87.52
2019-01-13T18:18:45.336Z,88.67
2019-01-13T18:21:16.063Z,88.44
2019-01-13T18:23:49.878Z,88.34
2019-01-13T18:26:21.705Z,87.05
2019-01-13T18:28:52.500Z,87.94
2019-01-13T18:31:24.726Z,87.25
2019-01-13T18:33:57.675Z,87.57
2019-01-13T18:36:28.443Z,88.30
2019-01-13T18:38:58.786Z,87.49
2019-01-13T18:41:31.963Z,87.51
2019-01-13T18:44:02.697Z,87.44
2019-01-13T18:46:34.118Z,87.15
2019-01-13T18:49:04.774Z,86.88
2019-01-13T18:51:35.515Z,87.55
2019-01-13T18:54:05.882Z,86.94
2019-01-13T18:56:36.712Z,86.71
2019-01-13T18:59:07.851Z,86.41
2019-01-13T19:01:38.510Z,86.59
2019-01-13T19:04:15.667Z,86.23
2019-01-13T19:06:48.111Z,86.26
2019-01-13T19:09:19.967Z,86.72
2019-01-13T19:11:52.326Z,87.27
2019-01-13T19:14:26.053Z,86.72
2019-01-13T19:16:57.966Z,85.67
2019-01-13T19:19:29.725Z,86.07
2019-01-13T19:22:02.986Z,86.24
2019-01-13T19:24:35.355Z,85.89
2019-01-13T19:27:06.458Z,85.46
2019-01-13T19:29:37.208Z,85.59
2019-01-13T19:32:07.929Z,85.89
2019-01-13T19:34:38.577Z,86.66
2019-01-13T19:37:09.413Z,86.62
2019-01-13T19:39:40.133Z,85.51
2019-01-13T19:42:10.954Z,86.14
2019-01-13T19:44:43.728Z,86.12
2019-01-13T19:47:16.140Z,86.73
2019-01-13T19:49:48.333Z,86.18
2019-01-13T19:52:18.734Z,86.90
2019-01-13T19:54:50.727Z,86.72
2019-01-13T19:57:21.435Z,86.67
2019-01-13T19:59:52.345Z,86.35
2019-01-13T20:02:22.976Z,86.06
2019-01-13T20:04:53.810Z,85.61
2019-01-13T20:07:26.063Z,85.32
2019-01-13T20:09:58.900Z,85.22
2019-01-13T20:12:29.305Z,85.61
2019-01-13T20:14:59.999Z,85.45
2019-01-13T20:17:42.290Z,85.08
2019-01-13T20:20:32.446Z,85.13
2019-01-13T20:23:09.535Z,85.48
2019-01-13T20:25:41.993Z,84.30
2019-01-13T20:28:23.996Z,84.72
2019-01-13T20:34:01.504Z,84.07
2019-01-13T20:36:32.719Z,83.22
2019-01-13T20:39:05.148Z,84.63
2019-01-13T20:41:35.850Z,84.41
2019-01-13T20:44:09.560Z,83.50
2019-01-13T20:46:45.978Z,83.45
2019-01-13T20:49:13.420Z,83.78
2019-01-13T20:51:44.256Z,83.76
2019-01-13T20:54:16.953Z,83.28
2019-01-13T20:56:47.796Z,84.66
2019-01-13T20:59:18.567Z,84.29
2019-01-13T21:01:49.234Z,84.68
2019-01-13T21:04:22.422Z,85.16
2019-01-13T21:06:54.158Z,85.16
2019-01-13T21:09:24.882Z,85.16
2019-01-13T21:11:58.065Z,85.42
2019-01-13T21:14:29.745Z,84.53
2019-01-13T21:17:00.499Z,84.95
2019-01-13T21:19:31.356Z,85.40
2019-01-13T21:22:02.166Z,85.04
2019-01-13T21:24:33.639Z,86.00
2019-01-13T21:27:04.436Z,86.55
2019-01-13T21:29:35.289Z,87.11
2019-01-13T21:32:06.013Z,86.12
2019-01-13T21:34:39.508Z,86.39
2019-01-13T21:37:11.755Z,86.51
2019-01-13T21:39:43.107Z,87.12
2019-01-13T21:42:17.992Z,86.41
2019-01-13T21:45:03.477Z,86.21
2019-01-13T21:47:34.022Z,86.16
2019-01-13T21:50:07.774Z,85.24
2019-01-13T21:52:38.614Z,84.89
2019-01-13T21:55:11.581Z,85.11
2019-01-13T21:57:43.730Z,84.71
2019-01-13T22:00:20.324Z,84.21
2019-01-13T22:02:58.740Z,84.77
2019-01-13T22:05:28.548Z,84.16
2019-01-13T22:08:01.406Z,83.47
2019-01-13T22:10:33.815Z,84.00
2019-01-13T22:13:04.298Z,83.57
2019-01-13T22:15:36.304Z,83.85
2019-01-13T22:18:07.032Z,83.08
2019-01-13T22:20:39.604Z,83.72
2019-01-13T22:23:10.313Z,83.35
2019-01-13T22:25:43.743Z,83.33
2019-01-13T22:28:16.124Z,83.28
2019-01-13T22:30:47.997Z,82.82
2019-01-13T22:33:18.950Z,82.45
2019-01-13T22:35:49.382Z,81.81
2019-01-13T22:38:20.092Z,81.84
2019-01-13T22:40:50.824Z,81.77
2019-01-13T22:43:21.661Z,82.01
2019-01-13T22:45:52.448Z,81.88
2019-01-13T22:48:22.985Z,81.31
2019-01-13T22:50:53.667Z,80.89
2019-01-13T22:53:24.269Z,81.34
2019-01-13T22:55:54.569Z,80.84
2019-01-13T22:58:25.192Z,81.06
2019-01-13T23:01:08.500Z,80.90
2019-01-13T23:03:39.168Z,80.05
2019-01-13T23:06:13.764Z,80.41
2019-01-13T23:08:44.524Z,80.11
2019-01-13T23:11:15.149Z,80.07
2019-01-13T23:13:45.781Z,79.54
2019-01-13T23:16:16.533Z,80.32
2019-01-13T23:18:47.260Z,80.57
2019-01-13T23:21:19.955Z,80.15
2019-01-13T23:23:50.575Z,79.57
2019-01-13T23:26:21.220Z,79.37
2019-01-13T23:28:51.848Z,79.87
2019-01-13T23:31:22.240Z,78.60
2019-01-13T23:33:52.598Z,77.05
2019-01-13T23:36:24.765Z,77.83
2019-01-13T23:38:55.509Z,78.15
2019-01-13T23:41:26.249Z,77.76
2019-01-13T23:43:59.831Z,76.80
2019-01-13T23:46:30.624Z,77.12
2019-01-13T23:49:01.744Z,76.72
2019-01-13T23:51:32.476Z,76.34
2019-01-13T23:54:03.177Z,76.37
2019-01-13T23:56:34.027Z,76.43
2019-01-13T23:59:04.734Z,76.11
